createdAt,value
2019-02-02T00:01:56.498Z,2.20
2019-02-02T00:04:24.361Z,2.20
2019-02-02T00:06:52.310Z,2.20
2019-02-02T00:09:20.198Z,2.20
2019-02-02T00:11:48.078Z,2.20
2019-02-02T00:14:15.927Z,2.30
2019-02-02T00:16:43.815Z,2.20
2019-02-02T00:19:11.574Z,2.20
2019-02-02T00:21:39.367Z,2.20
2019-02-02T00:24:07.149Z,2.10
2019-02-02T00:26:34.922Z,2.10
2019-02-02T00:29:02.707Z,2.10
2019-02-02T00:31:30.606Z,2.10
2019-02-02T00:33:58.370Z,2.10
2019-02-02T00:36:26.299Z,2.20
2019-02-02T00:38:54.093Z,2.20
2019-02-02T00:41:21.952Z,2.20
2019-02-02T00:43:49.743Z,2.10
2019-02-02T00:46:17.582Z,2.10
2019-02-02T00:48:45.369Z,2.10
2019-02-02T00:51:13.135Z,2.10
2019-02-02T00:53:40.917Z,2.10
2019-02-02T00:56:08.746Z,2.10
2019-02-02T00:58:36.555Z,2.10
2019-02-02T01:01:04.752Z,2.00
2019-02-02T01:03:32.578Z,2.00
2019-02-02T01:06:00.366Z,2.00
2019-02-02T01:08:28.495Z,2.00
2019-02-02T01:10:56.360Z,2.00
2019-02-02T01:13:24.346Z,2.00
2019-02-02T01:15:52.122Z,2.00
2019-02-02T01:18:19.974Z,2.00
2019-02-02T01:20:48.050Z,2.00
2019-02-02T01:23:15.915Z,2.00
2019-02-02T01:25:44.040Z,2.00
2019-02-02T01:28:11.925Z,2.00
2019-02-02T01:30:39.787Z,2.00
2019-02-02T01:33:07.609Z,2.00
2019-02-02T01:35:35.378Z,2.00
2019-02-02T01:38:03.250Z,2.00
2019-02-02T01:40:31.243Z,1.90
2019-02-02T01:42:59.058Z,2.00
2019-02-02T01:45:27.105Z,1.90
2019-02-02T01:47:55.274Z,2.00
2019-02-02T01:50:23.597Z,2.00
2019-02-02T01:52:51.676Z,1.90
2019-02-02T01:55:19.780Z,2.00
2019-02-02T01:57:47.889Z,2.00
2019-02-02T02:00:17.213Z,2.00
2019-02-02T02:02:45.087Z,2.00
2019-02-02T02:05:13.193Z,2.00
2019-02-02T02:07:41.284Z,1.90
2019-02-02T02:10:09.608Z,1.90
2019-02-02T02:12:37.430Z,1.90
2019-02-02T02:15:06.146Z,1.80
2019-02-02T02:17:34.001Z,1.80
2019-02-02T02:20:01.848Z,1.90
2019-02-02T02:22:40.694Z,1.90
2019-02-02T02:24:59.201Z,1.80
2019-02-02T02:27:27.022Z,1.80
2019-02-02T02:29:54.894Z,1.80
2019-02-02T02:32:22.743Z,1.80
2019-02-02T02:34:50.531Z,1.80
2019-02-02T02:37:18.388Z,1.80
2019-02-02T02:39:46.347Z,1.70
2019-02-02T02:42:14.214Z,1.70
2019-02-02T02:44:42.007Z,1.70
2019-02-02T02:47:09.843Z,1.70
2019-02-02T02:49:38.319Z,1.70
2019-02-02T02:52:06.085Z,1.80
2019-02-02T02:54:33.872Z,1.80
2019-02-02T02:57:01.724Z,1.80
2019-02-02T02:59:29.535Z,1.80
2019-02-02T03:01:57.311Z,1.70
2019-02-02T03:04:25.094Z,1.70
2019-02-02T03:06:52.889Z,1.80
2019-02-02T03:09:20.751Z,1.70
2019-02-02T03:11:48.752Z,1.70
2019-02-02T03:14:16.534Z,1.70
2019-02-02T03:16:44.920Z,1.70
2019-02-02T03:19:12.857Z,1.70
2019-02-02T03:21:43.583Z,1.70
2019-02-02T03:24:10.228Z,1.70
2019-02-02T03:26:37.998Z,1.60
2019-02-02T03:29:05.942Z,1.60
2019-02-02T03:31:33.816Z,1.60
2019-02-02T03:34:01.743Z,1.60
2019-02-02T03:36:29.823Z,1.50
2019-02-02T03:38:57.603Z,1.50
2019-02-02T03:41:25.487Z,1.40
2019-02-02T03:43:53.288Z,1.40
2019-02-02T03:46:21.050Z,1.40
2019-02-02T03:48:48.899Z,1.40
2019-02-02T03:51:16.664Z,1.40
2019-02-02T03:53:44.452Z,1.40
2019-02-02T03:56:12.227Z,1.40
2019-02-02T03:58:40.191Z,1.40
2019-02-02T04:01:07.979Z,1.40
2019-02-02T04:03:35.769Z,1.40
2019-02-02T04:06:04.060Z,1.40
2019-02-02T04:08:31.935Z,1.40
2019-02-02T04:10:59.702Z,1.50
2019-02-02T04:13:27.469Z,1.50
2019-02-02T04:15:55.266Z,1.50
2019-02-02T04:18:23.035Z,1.50
2019-02-02T04:20:50.817Z,1.50
2019-02-02T04:23:18.583Z,1.50
2019-02-02T04:25:46.404Z,1.50
2019-02-02T04:28:14.170Z,1.50
2019-02-02T04:30:42.102Z,1.50
2019-02-02T04:33:09.883Z,1.50
2019-02-02T04:35:38.026Z,1.50
2019-02-02T04:38:05.907Z,1.50
2019-02-02T04:40:33.699Z,1.50
2019-02-02T04:43:01.997Z,1.50
2019-02-02T04:45:30.059Z,1.50
2019-02-02T04:47:57.860Z,1.50
2019-02-02T04:50:25.690Z,1.50
2019-02-02T04:52:53.616Z,1.50
2019-02-02T04:55:21.441Z,1.40
2019-02-02T04:57:49.211Z,1.50
2019-02-02T05:00:18.608Z,1.40
2019-02-02T05:02:46.391Z,1.50
2019-02-02T05:05:14.350Z,1.50
2019-02-02T05:07:42.120Z,1.50
2019-02-02T05:10:11.223Z,1.50
2019-02-02T05:12:39.323Z,1.50
2019-02-02T05:15:07.407Z,1.50
2019-02-02T05:17:35.287Z,1.40
2019-02-02T05:20:03.170Z,1.50
2019-02-02T05:22:30.941Z,1.50
2019-02-02T05:24:58.739Z,1.50
2019-02-02T05:27:26.519Z,1.40
2019-02-02T05:29:54.307Z,1.40
2019-02-02T05:32:22.105Z,1.40
2019-02-02T05:34:49.925Z,1.40
2019-02-02T05:37:17.723Z,1.40
2019-02-02T05:39:45.671Z,1.40
2019-02-02T05:42:13.559Z,1.50
2019-02-02T05:44:41.407Z,1.40
2019-02-02T05:47:09.196Z,1.40
2019-02-02T05:49:36.967Z,1.40
2019-02-02T05:52:04.772Z,1.40
2019-02-02T05:54:32.535Z,1.50
2019-02-02T05:57:00.299Z,1.50
2019-02-02T05:59:28.094Z,1.50
2019-02-02T06:01:55.876Z,1.50
2019-02-02T06:04:24.142Z,1.50
2019-02-02T06:06:52.015Z,1.60
2019-02-02T06:09:22.772Z,1.60
2019-02-02T06:11:49.371Z,1.60
2019-02-02T06:14:17.431Z,1.60
2019-02-02T06:16:45.222Z,1.60
2019-02-02T06:19:13.007Z,1.60
2019-02-02T06:21:40.863Z,1.60
2019-02-02T06:24:08.730Z,1.60
2019-02-02T06:26:36.538Z,1.60
2019-02-02T06:29:05.088Z,1.60
2019-02-02T06:31:32.963Z,1.50
2019-02-02T06:34:00.846Z,1.50
2019-02-02T06:36:28.780Z,1.50
2019-02-02T06:38:56.640Z,1.50
2019-02-02T06:41:24.610Z,1.50
2019-02-02T06:43:52.782Z,1.60
2019-02-02T06:46:20.623Z,1.60
2019-02-02T06:48:48.426Z,1.60
2019-02-02T06:51:16.219Z,1.70
2019-02-02T06:53:44.370Z,1.70
2019-02-02T06:56:12.303Z,1.70
2019-02-02T06:58:40.406Z,1.80
2019-02-02T07:01:08.461Z,1.80
2019-02-02T07:03:36.752Z,1.70
2019-02-02T07:06:04.532Z,1.70
2019-02-02T07:08:32.323Z,1.70
2019-02-02T07:11:00.119Z,1.70
2019-02-02T07:13:27.919Z,1.70
2019-02-02T07:15:55.704Z,1.70
2019-02-02T07:18:23.554Z,1.60
2019-02-02T07:20:51.331Z,1.70
2019-02-02T07:23:19.123Z,1.70
2019-02-02T07:25:46.921Z,1.80
2019-02-02T07:28:14.711Z,1.80
2019-02-02T07:30:42.726Z,1.70
2019-02-02T07:33:10.491Z,1.80
2019-02-02T07:35:38.296Z,1.80
2019-02-02T07:38:06.072Z,1.80
2019-02-02T07:40:33.866Z,1.80
2019-02-02T07:43:01.707Z,1.80
2019-02-02T07:45:30.083Z,1.80
2019-02-02T07:47:57.971Z,1.80
2019-02-02T07:50:25.926Z,1.80
2019-02-02T07:52:53.698Z,1.80
2019-02-02T07:55:21.587Z,1.80
2019-02-02T07:57:49.455Z,1.80
2019-02-02T08:00:24.759Z,1.90
2019-02-02T08:02:52.536Z,1.90
2019-02-02T08:05:20.418Z,1.90
2019-02-02T08:07:48.187Z,2.00
2019-02-02T08:10:16.054Z,1.90
2019-02-02T08:12:43.911Z,1.90
2019-02-02T08:15:13.212Z,2.00
2019-02-02T08:17:41.069Z,2.00
2019-02-02T08:20:09.508Z,2.10
2019-02-02T08:22:37.283Z,2.10
2019-02-02T08:25:05.403Z,2.20
2019-02-02T08:27:33.168Z,2.10
2019-02-02T08:30:00.974Z,2.00
2019-02-02T08:32:28.748Z,2.00
2019-02-02T08:34:56.563Z,2.00
2019-02-02T08:37:24.347Z,2.00
2019-02-02T08:39:52.211Z,2.10
2019-02-02T08:42:20.078Z,2.20
2019-02-02T08:44:47.967Z,2.20
2019-02-02T08:47:15.787Z,2.20
2019-02-02T08:49:43.831Z,2.20
2019-02-02T08:52:11.648Z,2.20
2019-02-02T08:54:39.700Z,2.30
2019-02-02T08:57:07.727Z,2.30
2019-02-02T08:59:35.534Z,2.20
2019-02-02T09:02:03.323Z,2.20
2019-02-02T09:04:31.191Z,2.20
2019-02-02T09:06:59.126Z,2.20
2019-02-02T09:09:27.007Z,2.20
2019-02-02T09:11:54.904Z,2.20
2019-02-02T09:14:22.751Z,2.10
2019-02-02T09:16:50.643Z,2.10
2019-02-02T09:19:18.407Z,2.10
2019-02-02T09:21:46.203Z,2.00
2019-02-02T09:24:13.995Z,2.00
2019-02-02T09:26:41.780Z,2.10
2019-02-02T09:29:10.506Z,2.10
2019-02-02T09:31:38.523Z,2.10
2019-02-02T09:34:06.387Z,2.20
2019-02-02T09:36:34.310Z,2.30
2019-02-02T09:39:02.115Z,2.30
2019-02-02T09:41:29.915Z,2.40
2019-02-02T09:43:58.124Z,2.40
2019-02-02T09:46:26.015Z,2.40
2019-02-02T09:48:53.895Z,2.40
2019-02-02T09:51:21.687Z,2.40
2019-02-02T09:53:49.516Z,2.30
2019-02-02T09:56:17.312Z,2.30
2019-02-02T09:58:45.104Z,2.20
2019-02-02T10:01:12.967Z,2.10
2019-02-02T10:03:40.735Z,2.10
2019-02-02T10:06:08.579Z,2.20
2019-02-02T10:08:36.432Z,2.20
2019-02-02T10:11:04.382Z,2.30
2019-02-02T10:13:32.260Z,2.40
2019-02-02T10:16:00.062Z,2.50
2019-02-02T10:18:27.899Z,2.50
2019-02-02T10:21:03.602Z,2.60
2019-02-02T10:23:25.243Z,2.60
2019-02-02T10:25:53.142Z,2.60
2019-02-02T10:28:21.036Z,2.50
2019-02-02T10:30:48.949Z,2.40
2019-02-02T10:33:17.004Z,2.40
2019-02-02T10:35:44.839Z,2.40
2019-02-02T10:38:12.888Z,2.50
2019-02-02T10:40:40.774Z,2.40
2019-02-02T10:43:08.637Z,2.40
2019-02-02T10:45:36.878Z,2.50
2019-02-02T10:48:05.294Z,2.50
2019-02-02T10:50:33.179Z,2.50
2019-02-02T10:53:01.012Z,2.60
2019-02-02T10:55:28.982Z,2.70
2019-02-02T10:57:56.846Z,2.70
2019-02-02T11:00:28.568Z,2.80
2019-02-02T11:02:56.341Z,2.80
2019-02-02T11:05:24.213Z,2.80
2019-02-02T11:07:54.290Z,2.80
2019-02-02T11:10:22.418Z,2.90
2019-02-02T11:12:50.398Z,2.90
2019-02-02T11:15:19.422Z,3.00
2019-02-02T11:17:47.405Z,3.00
2019-02-02T11:20:17.650Z,3.00
2019-02-02T11:22:46.077Z,3.00
2019-02-02T11:25:14.383Z,3.00
2019-02-02T11:27:42.488Z,2.90
2019-02-02T11:30:11.186Z,2.90
2019-02-02T11:32:38.957Z,2.90
2019-02-02T11:35:07.699Z,2.90
2019-02-02T11:37:35.483Z,2.80
2019-02-02T11:40:04.151Z,2.90
2019-02-02T11:42:31.984Z,2.90
2019-02-02T11:44:59.759Z,3.00
2019-02-02T11:47:27.829Z,3.00
2019-02-02T11:49:55.691Z,3.00
2019-02-02T11:52:23.592Z,3.00
2019-02-02T11:54:51.421Z,3.00
2019-02-02T11:57:19.310Z,3.00
2019-02-02T11:59:47.184Z,3.10
2019-02-02T12:02:15.064Z,3.10
2019-02-02T12:04:42.883Z,3.00
2019-02-02T12:07:10.749Z,3.00
2019-02-02T12:09:38.699Z,3.00
2019-02-02T12:12:06.503Z,3.10
2019-02-02T12:14:34.359Z,3.10
2019-02-02T12:17:02.636Z,3.10
2019-02-02T12:19:30.415Z,3.00
2019-02-02T12:21:58.312Z,3.00
2019-02-02T12:24:26.134Z,2.80
2019-02-02T12:26:54.043Z,2.70
2019-02-02T12:29:21.831Z,2.70
2019-02-02T12:31:49.642Z,2.70
2019-02-02T12:34:18.004Z,2.60
2019-02-02T12:36:46.206Z,2.60
2019-02-02T12:39:14.051Z,2.60
2019-02-02T12:41:41.943Z,2.70
2019-02-02T12:44:09.868Z,2.60
2019-02-02T12:46:37.763Z,2.70
2019-02-02T12:49:05.655Z,2.70
2019-02-02T12:51:33.520Z,2.70
2019-02-02T12:54:01.308Z,2.70
2019-02-02T12:56:29.111Z,2.60
2019-02-02T12:58:56.980Z,2.50
2019-02-02T13:01:25.607Z,2.50
2019-02-02T13:04:01.441Z,2.40
2019-02-02T13:06:22.975Z,2.30
2019-02-02T13:08:50.831Z,2.30
2019-02-02T13:11:18.740Z,2.20
2019-02-02T13:13:46.547Z,2.20
2019-02-02T13:16:14.446Z,2.20
2019-02-02T13:18:42.262Z,2.20
2019-02-02T13:21:10.081Z,2.20
2019-02-02T13:23:37.910Z,2.10
2019-02-02T13:26:05.960Z,2.10
2019-02-02T13:28:33.892Z,2.00
2019-02-02T13:31:01.739Z,2.00
2019-02-02T13:33:29.556Z,2.00
2019-02-02T13:35:57.898Z,2.00
2019-02-02T13:38:25.890Z,2.00
2019-02-02T13:40:53.738Z,2.00
2019-02-02T13:43:21.628Z,1.90
2019-02-02T13:45:49.435Z,1.90
2019-02-02T13:48:17.347Z,1.90
2019-02-02T13:50:45.211Z,1.90
2019-02-02T13:53:13.183Z,1.90
2019-02-02T13:55:41.632Z,1.80
2019-02-02T13:58:09.756Z,1.80
2019-02-02T14:00:37.620Z,1.80
2019-02-02T14:03:05.847Z,1.80
2019-02-02T14:05:33.627Z,1.80
2019-02-02T14:08:01.527Z,1.80
2019-02-02T14:10:30.071Z,1.80
2019-02-02T14:12:58.075Z,1.80
2019-02-02T14:15:26.007Z,1.70
2019-02-02T14:17:54.826Z,1.70
2019-02-02T14:20:22.732Z,1.70
2019-02-02T14:22:50.548Z,1.70
2019-02-02T14:25:18.639Z,1.80
2019-02-02T14:27:46.879Z,1.70
2019-02-02T14:30:18.514Z,1.80
2019-02-02T14:32:46.326Z,1.80
2019-02-02T14:35:14.523Z,1.80
2019-02-02T14:37:42.379Z,1.80
2019-02-02T14:40:10.759Z,1.70
2019-02-02T14:42:38.814Z,1.70
2019-02-02T14:45:07.547Z,1.60
2019-02-02T14:47:35.607Z,1.60
2019-02-02T14:50:05.108Z,1.60
2019-02-02T14:52:32.950Z,1.60
2019-02-02T14:55:00.864Z,1.60
2019-02-02T14:57:28.787Z,1.60
2019-02-02T14:59:56.859Z,1.60
2019-02-02T15:02:24.781Z,1.60
2019-02-02T15:04:53.995Z,1.60
2019-02-02T15:07:21.815Z,1.60
2019-02-02T15:09:49.589Z,1.60
2019-02-02T15:12:17.495Z,1.60
2019-02-02T15:14:45.364Z,1.60
2019-02-02T15:17:13.233Z,1.60
2019-02-02T15:19:41.053Z,1.50
2019-02-02T15:22:08.859Z,1.50
2019-02-02T15:24:36.698Z,1.50
2019-02-02T15:27:04.495Z,1.60
2019-02-02T15:29:32.404Z,1.60
2019-02-02T15:32:00.597Z,1.60
2019-02-02T15:34:28.408Z,1.60
2019-02-02T15:36:56.502Z,1.70
2019-02-02T15:39:24.383Z,1.80
2019-02-02T15:41:53.206Z,1.80
2019-02-02T15:44:21.349Z,1.70
2019-02-02T15:46:49.544Z,1.70
2019-02-02T15:49:17.384Z,1.60
2019-02-02T15:51:45.171Z,1.60
2019-02-02T15:54:13.015Z,1.60
2019-02-02T15:56:40.796Z,1.50
2019-02-02T15:59:08.607Z,1.50
2019-02-02T16:01:36.398Z,1.50
2019-02-02T16:04:04.511Z,1.50
2019-02-02T16:06:32.275Z,1.50
2019-02-02T16:09:00.104Z,1.50
2019-02-02T16:11:28.207Z,1.50
2019-02-02T16:13:56.022Z,1.50
2019-02-02T16:16:23.887Z,1.60
2019-02-02T16:18:51.800Z,1.60
2019-02-02T16:21:19.624Z,1.60
2019-02-02T16:23:47.563Z,1.60
2019-02-02T16:26:15.356Z,1.60
2019-02-02T16:28:43.222Z,1.50
2019-02-02T16:31:10.991Z,1.50
2019-02-02T16:33:38.911Z,1.60
2019-02-02T16:36:06.730Z,1.60
2019-02-02T16:38:34.650Z,1.60
2019-02-02T16:41:02.555Z,1.60
2019-02-02T16:43:30.379Z,1.60
2019-02-02T16:45:58.427Z,1.70
2019-02-02T16:48:26.307Z,1.80
2019-02-02T16:50:56.745Z,1.70
2019-02-02T16:53:23.836Z,1.70
2019-02-02T16:55:51.715Z,1.60
2019-02-02T16:58:19.662Z,1.50
2019-02-02T17:00:47.488Z,1.50
2019-02-02T17:03:15.610Z,1.60
2019-02-02T17:05:43.441Z,1.60
2019-02-02T17:08:11.247Z,1.60
2019-02-02T17:10:39.175Z,1.50
2019-02-02T17:13:06.994Z,1.50
2019-02-02T17:15:34.926Z,1.50
2019-02-02T17:18:02.955Z,1.50
2019-02-02T17:20:32.315Z,1.60
2019-02-02T17:23:00.267Z,1.60
2019-02-02T17:25:28.148Z,1.60
2019-02-02T17:27:56.039Z,1.60
2019-02-02T17:30:24.174Z,1.60
2019-02-02T17:32:52.915Z,1.60
2019-02-02T17:35:20.813Z,1.50
2019-02-02T17:37:48.583Z,1.50
2019-02-02T17:40:17.611Z,1.50
2019-02-02T17:42:45.551Z,1.50
2019-02-02T17:45:14.339Z,1.50
2019-02-02T17:47:42.220Z,1.50
2019-02-02T17:50:11.421Z,1.50
2019-02-02T17:52:39.188Z,1.50
2019-02-02T17:55:07.454Z,1.50
2019-02-02T17:57:35.252Z,1.50
2019-02-02T18:00:03.371Z,1.50
2019-02-02T18:02:31.189Z,1.50
2019-02-02T18:04:59.013Z,1.50
2019-02-02T18:07:26.783Z,1.50
2019-02-02T18:09:54.641Z,1.40
2019-02-02T18:12:22.451Z,1.40
2019-02-02T18:14:50.367Z,1.40
2019-02-02T18:17:18.503Z,1.40
2019-02-02T18:19:46.497Z,1.40
2019-02-02T18:22:14.464Z,1.50
2019-02-02T18:24:42.344Z,1.50
2019-02-02T18:27:10.164Z,1.50
2019-02-02T18:29:38.026Z,1.50
2019-02-02T18:32:12.869Z,1.50
2019-02-02T18:34:35.919Z,1.50
2019-02-02T18:37:04.163Z,1.50
2019-02-02T18:39:31.934Z,1.50
2019-02-02T18:41:59.747Z,1.50
2019-02-02T18:44:27.599Z,1.40
2019-02-02T18:46:55.471Z,1.40
2019-02-02T18:49:23.327Z,1.30
2019-02-02T18:51:51.244Z,1.30
2019-02-02T18:54:19.063Z,1.30
2019-02-02T18:56:46.977Z,1.30
2019-02-02T18:59:14.804Z,1.40
2019-02-02T19:01:42.723Z,1.40
2019-02-02T19:04:10.538Z,1.40
2019-02-02T19:06:38.374Z,1.50
2019-02-02T19:09:07.060Z,1.60
2019-02-02T19:11:34.955Z,1.70
2019-02-02T19:14:02.727Z,1.70
2019-02-02T19:16:30.535Z,1.80
2019-02-02T19:18:58.663Z,1.80
2019-02-02T19:21:26.488Z,1.80
2019-02-02T19:23:54.263Z,1.80
2019-02-02T19:26:22.451Z,1.80
2019-02-02T19:28:50.343Z,1.70
2019-02-02T19:31:18.262Z,1.70
2019-02-02T19:33:46.075Z,1.60
2019-02-02T19:36:13.895Z,1.60
2019-02-02T19:38:41.704Z,1.60
2019-02-02T19:41:09.536Z,1.60
2019-02-02T19:43:37.340Z,1.60
2019-02-02T19:46:05.330Z,1.70
2019-02-02T19:48:33.252Z,1.70
2019-02-02T19:51:01.058Z,1.70
2019-02-02T19:53:32.050Z,1.80
2019-02-02T19:56:00.359Z,1.80
2019-02-02T19:58:28.383Z,1.70
2019-02-02T20:00:56.244Z,1.70
2019-02-02T20:03:24.171Z,1.70
2019-02-02T20:05:52.081Z,1.70
2019-02-02T20:08:19.847Z,1.80
2019-02-02T20:10:47.674Z,1.70
2019-02-02T20:13:15.739Z,1.80
2019-02-02T20:15:43.709Z,1.80
2019-02-02T20:18:11.651Z,1.80
2019-02-02T20:20:39.439Z,1.70
2019-02-02T20:23:07.431Z,1.70
2019-02-02T20:25:35.395Z,1.70
2019-02-02T20:28:03.567Z,1.70
2019-02-02T20:30:31.532Z,1.70
2019-02-02T20:32:59.674Z,1.70
2019-02-02T20:35:39.773Z,1.60
2019-02-02T20:37:57.224Z,1.60
2019-02-02T20:40:25.264Z,1.60
2019-02-02T20:42:53.183Z,1.60
2019-02-02T20:45:22.328Z,1.60
2019-02-02T20:47:50.307Z,1.60
2019-02-02T20:50:18.200Z,1.50
2019-02-02T20:52:47.814Z,1.50
2019-02-02T20:55:16.834Z,1.40
2019-02-02T20:57:45.957Z,1.40
2019-02-02T21:00:15.214Z,1.40
2019-02-02T21:02:43.148Z,1.40
2019-02-02T21:05:10.993Z,1.50
2019-02-02T21:07:38.819Z,1.50
2019-02-02T21:10:07.855Z,1.50
2019-02-02T21:12:35.968Z,1.50
2019-02-02T21:15:04.835Z,1.50
2019-02-02T21:17:32.652Z,1.60
2019-02-02T21:20:00.449Z,1.70
2019-02-02T21:22:28.427Z,1.80
2019-02-02T21:24:56.500Z,1.90
2019-02-02T21:27:24.958Z,1.80
2019-02-02T21:29:52.835Z,1.70
2019-02-02T21:32:20.903Z,1.70
2019-02-02T21:34:48.752Z,1.70
2019-02-02T21:37:16.575Z,1.60
2019-02-02T21:39:44.347Z,1.60
2019-02-02T21:42:12.721Z,1.50
2019-02-02T21:44:43.257Z,1.40
2019-02-02T21:47:10.201Z,1.40
2019-02-02T21:49:37.975Z,1.40
2019-02-02T21:52:06.178Z,1.40
2019-02-02T21:54:33.964Z,1.40
2019-02-02T21:57:02.071Z,1.40
2019-02-02T21:59:30.054Z,1.30
2019-02-02T22:01:57.965Z,1.30
2019-02-02T22:04:25.737Z,1.30
2019-02-02T22:06:53.637Z,1.20
2019-02-02T22:09:21.588Z,1.20
2019-02-02T22:11:49.810Z,1.20
2019-02-02T22:14:17.767Z,1.20
2019-02-02T22:16:45.612Z,1.20
2019-02-02T22:19:13.734Z,1.20
2019-02-02T22:21:41.544Z,1.20
2019-02-02T22:24:09.402Z,1.20
2019-02-02T22:26:37.268Z,1.20
2019-02-02T22:29:05.177Z,1.20
2019-02-02T22:31:33.001Z,1.20
2019-02-02T22:34:00.886Z,1.20
2019-02-02T22:36:28.743Z,1.20
2019-02-02T22:38:56.638Z,1.20
2019-02-02T22:41:24.418Z,1.20
2019-02-02T22:43:52.267Z,1.20
2019-02-02T22:46:20.166Z,1.20
2019-02-02T22:48:47.987Z,1.20
2019-02-02T22:51:15.841Z,1.20
2019-02-02T22:53:43.630Z,1.10
2019-02-02T22:56:11.679Z,1.10
2019-02-02T22:58:39.644Z,1.10
2019-02-02T23:01:33.108Z,1.10
2019-02-02T23:04:20.262Z,1.20
2019-02-02T23:06:56.131Z,1.10
2019-02-02T23:09:41.971Z,1.20
2019-02-02T23:12:16.253Z,1.20
2019-02-02T23:15:18.615Z,1.20
2019-02-02T23:17:46.425Z,1.10
2019-02-02T23:20:14.461Z,1.10
2019-02-02T23:22:42.255Z,1.10
2019-02-02T23:25:10.107Z,1.10
2019-02-02T23:27:37.907Z,1.10
2019-02-02T23:30:05.959Z,1.00
2019-02-02T23:32:34.019Z,1.00
2019-02-02T23:35:01.823Z,1.00
2019-02-02T23:37:29.667Z,1.00
2019-02-02T23:39:57.463Z,1.00
2019-02-02T23:42:25.306Z,1.10
2019-02-02T23:44:53.206Z,1.10
2019-02-02T23:47:21.455Z,1.10
2019-02-02T23:49:49.363Z,1.00
2019-02-02T23:52:17.189Z,1.00
2019-02-02T23:54:45.076Z,1.00
2019-02-02T23:57:13.772Z,1.00
2019-02-02T23:59:41.633Z,1.00
